Dikson, Russia
Current Conditions -  °F | °C
As of 6:30 AM on Saturday 01 Nov 2014 (Local Time) from USRR Reporting Station
Light Snow Light Snow  
Wind Chill: 25°   Ceiling: 500
Heat Index: 34°   Visibility: 1.8mi
Dew Point: 32°   Wind: 11mph
Humidity: 93%   Direction: 240°WSW
Pressure: 29.68"   Gusts: NA
Location:  73.51°N, 80.55°E
Report Text: USRR 312330Z 24005MPS 3000 -SN OVC005 01/00 Q1005 TEMPO 2000 SNBR BKN003 RMK QBB150 OBST OBSC QFE749 25////55
Loading
Personal Weather Stations






























Interactive Weather Map
Tropical Storm Tracking
New forecast layout! Learn more

10-Day Weather Forecast

Advertisements
Track Severe Weather on mobile